Aérodrome :
LOGIN :

S'inscrire | Disclaimer

   EN    FR    IT 

 










Légende :    VFR   VFR Marginal   IFR   IFR Intensif   IFR Très Intensif
Visi : 
Plafond : 
>= 8 km
>= 3000ft
5 à 8 km
1000 à 3000 ft
1500m à 5 km
500 à 1000 ft
800 à 1500m
200 à 500 ft
< 800m
< 200 ft
Symboles :   Orages  Brouillard  Fortes neiges  Fortes précipitations  Vent > 20 kt
SIGMETs :   Divers  Orages  Givrage  Turbulence  Onde Orograph.  Cendres Volcan.






- Altitude de l'aérodrome : 479 ft
- Code IATA : DOL


LFRG - Deauville

DERNIER METAR :
  • 071900Z AUTO 24006KT CAVOK 12/10 Q1021 NOSIG

METARs EXPIRÉS :
  • 071830Z AUTO 23005KT CAVOK 12/08 Q1021 NOSIG
  • 071800Z AUTO 23005KT 9999 FEW033 12/09 Q1021 NOSIG
  • 071730Z AUTO 25006KT 9999 FEW045 14/09 Q1021 NOSIG
  • 071700Z AUTO 25007KT 9999 FEW046 15/09 Q1021 NOSIG
  • 071630Z AUTO 26007KT CAVOK 16/10 Q1021 NOSIG

TAF TAF LFRG
Valide du 07 à 15h jusqu'au 08 à 00h UTC


071400Z 0715/0724 25007KT 9999 SCT035
TEMPO 0723/0724 4000 SHRA BKN010 BKN015TCU
ATIS : +33 2 31 65 65 36



MET'MAP, la Météo Aéronautique d'un coup d'oeil ! - Copyright ORBIFLY Décembre 2007 - Disclaimer

ORBIFLY MET'MAP TEAM :

Programmation & Développement : Alexandra Zaïnal
Sur une idée originale de : Baudouin d'Aumeries
Soutien technique & logistique : Manuel Goepfert
Assistance : Marc-Olivier Méhu




SOURCES & CREDITS :

   NOAA